Aérodrome :
LOGIN :

S'inscrire | Disclaimer

   EN    FR    IT 

 










Légende :    VFR   VFR Marginal   IFR   IFR Intensif   IFR Très Intensif
Visi : 
Plafond : 
>= 8 km
>= 3000ft
5 à 8 km
1000 à 3000 ft
1500m à 5 km
500 à 1000 ft
800 à 1500m
200 à 500 ft
< 800m
< 200 ft
Symboles :   Orages  Brouillard  Fortes neiges  Fortes précipitations  Vent > 20 kt
SIGMETs :   Divers  Orages  Givrage  Turbulence  Onde Orograph.  Cendres Volcan.






- Altitude de l'aérodrome : 11 ft
- Code IATA : MJV


LELC - Murcia San Javier

DERNIER METAR :
  • 280000Z AUTO 27005KT CAVOK 13/05 Q1021

METARs EXPIRÉS :
  • 272330Z AUTO 21004KT 170V280 8000 FEW041 13/07 Q1021
  • 272300Z AUTO 28006KT 9999 SCT043 13/06 Q1021
  • 272230Z AUTO 26006KT CAVOK 13/07 Q1021
  • 272200Z AUTO 23007KT CAVOK 13/07 Q1021
  • 272130Z AUTO 25005KT CAVOK 14/07 Q1021

TAF TAF LELC
Valide du 28 à 00h jusqu'au 29 à 00h UTC


272300Z 2800/2824 30010KT CAVOK TX21/2813Z TN08/2806Z
BECMG 2804/2806 VRB03KT
BECMG 2810/2812 10010KT
BECMG 2817/2819 VRB03KT



MET'MAP, la Météo Aéronautique d'un coup d'oeil ! - Copyright ORBIFLY Décembre 2007 - Disclaimer

ORBIFLY MET'MAP TEAM :

Programmation & Développement : Alexandra Zaïnal
Sur une idée originale de : Baudouin d'Aumeries
Assistance à la programmation : Marc-Olivier Méhu
Soutien technique & logistique : Manuel Goepfert

Contact : metmap@orbifly.com




SOURCES & CREDITS :

   NOAA